createdAt,value
2024-02-04T00:01:44.474Z,0
2024-02-04T00:03:44.406Z,0
2024-02-04T00:05:44.121Z,0
2024-02-04T00:07:44.034Z,0
2024-02-04T00:09:44.384Z,0
2024-02-04T00:11:43.951Z,0
2024-02-04T00:13:43.933Z,0
2024-02-04T00:15:45.114Z,0
2024-02-04T00:17:44.613Z,0
2024-02-04T00:19:44.232Z,0
2024-02-04T00:21:44.142Z,0
2024-02-04T00:23:43.924Z,0
2024-02-04T00:25:43.948Z,0
2024-02-04T00:27:44.090Z,0
2024-02-04T00:29:43.911Z,0
2024-02-04T00:31:43.952Z,0
2024-02-04T00:33:44.537Z,0
2024-02-04T00:35:43.915Z,0
2024-02-04T00:37:44.040Z,0
2024-02-04T00:39:44.176Z,0
2024-02-04T00:41:43.945Z,0
2024-02-04T00:43:43.979Z,0
2024-02-04T00:45:44.584Z,0
2024-02-04T00:47:43.985Z,0
2024-02-04T00:49:45.100Z,0
2024-02-04T00:51:44.774Z,0
2024-02-04T00:53:44.057Z,0
2024-02-04T00:55:44.980Z,0
2024-02-04T00:57:44.098Z,0
2024-02-04T00:59:44.181Z,0
2024-02-04T01:01:44.385Z,0
2024-02-04T01:03:44.377Z,0
2024-02-04T01:05:44.254Z,0
2024-02-04T01:07:44.177Z,0
2024-02-04T01:09:44.225Z,0
2024-02-04T01:11:43.886Z,0
2024-02-04T01:13:43.917Z,0
2024-02-04T01:15:44.123Z,0
2024-02-04T01:17:44.125Z,0
2024-02-04T01:19:44.247Z,0
2024-02-04T01:21:43.952Z,0
2024-02-04T01:23:43.944Z,0
2024-02-04T01:25:44.466Z,0
2024-02-04T01:27:44.012Z,0
2024-02-04T01:29:43.985Z,0
2024-02-04T01:31:43.997Z,0
2024-02-04T01:33:44.423Z,0
2024-02-04T01:35:43.918Z,0
2024-02-04T01:37:43.923Z,0
2024-02-04T01:39:44.015Z,0
2024-02-04T01:41:44.067Z,0
2024-02-04T01:43:43.892Z,0
2024-02-04T01:45:44.103Z,0
2024-02-04T01:47:44.248Z,0
2024-02-04T01:49:44.553Z,0
2024-02-04T01:51:43.915Z,0
2024-02-04T01:53:43.927Z,0
2024-02-04T01:55:43.910Z,0
2024-02-04T01:57:44.300Z,0
2024-02-04T01:59:43.875Z,0
2024-02-04T02:01:44.146Z,0
2024-02-04T02:03:44.067Z,0
2024-02-04T02:05:44.130Z,0
2024-02-04T02:07:43.900Z,0
2024-02-04T02:09:44.308Z,0
2024-02-04T02:11:43.862Z,0
2024-02-04T02:13:43.945Z,0
2024-02-04T02:15:44.111Z,0
2024-02-04T02:17:44.146Z,0
2024-02-04T02:19:44.182Z,0
2024-02-04T02:21:44.158Z,0
2024-02-04T02:23:43.890Z,0
2024-02-04T02:25:43.939Z,0
2024-02-04T02:27:44.026Z,0
2024-02-04T02:29:43.986Z,0
2024-02-04T02:31:50.090Z,0
2024-02-04T02:33:44.290Z,0
2024-02-04T02:35:43.924Z,0
2024-02-04T02:37:43.904Z,0
2024-02-04T02:39:44.155Z,0
2024-02-04T02:41:43.888Z,0
2024-02-04T02:43:43.906Z,0
2024-02-04T02:45:44.228Z,0
2024-02-04T02:47:44.356Z,0
2024-02-04T02:49:44.402Z,0
2024-02-04T02:51:44.239Z,0
2024-02-04T02:53:43.857Z,0
2024-02-04T02:55:43.878Z,0
2024-02-04T02:57:44.101Z,0
2024-02-04T02:59:43.891Z,0
2024-02-04T03:01:44.271Z,0
2024-02-04T03:03:44.260Z,0
2024-02-04T03:05:44.190Z,0
2024-02-04T03:07:44.036Z,0
2024-02-04T03:09:44.152Z,0
2024-02-04T03:11:43.952Z,0
2024-02-04T03:13:43.897Z,0
2024-02-04T03:15:44.107Z,0
2024-02-04T03:17:44.204Z,0
2024-02-04T03:19:43.975Z,0
2024-02-04T03:21:44.044Z,0
2024-02-04T03:23:44.263Z,0
2024-02-04T03:25:43.853Z,0
2024-02-04T03:27:44.103Z,0
2024-02-04T03:29:43.877Z,0
2024-02-04T03:31:43.864Z,0
2024-02-04T03:33:44.388Z,0
2024-02-04T03:35:43.858Z,0
2024-02-04T03:37:43.855Z,0
2024-02-04T03:39:44.070Z,0
2024-02-04T03:41:43.862Z,0
2024-02-04T03:43:43.892Z,0
2024-02-04T03:45:44.135Z,0
2024-02-04T03:47:44.324Z,0
2024-02-04T03:49:44.360Z,0
2024-02-04T03:51:44.072Z,0
2024-02-04T03:53:43.865Z,0
2024-02-04T03:55:43.883Z,0
2024-02-04T03:57:44.003Z,0
2024-02-04T03:59:43.847Z,0
2024-02-04T04:01:44.249Z,0
2024-02-04T04:03:44.366Z,0
2024-02-04T04:05:44.378Z,0
2024-02-04T04:07:44.183Z,0
2024-02-04T04:09:44.188Z,0
2024-02-04T04:11:43.968Z,0
2024-02-04T04:13:43.842Z,0
2024-02-04T04:15:44.105Z,0
2024-02-04T04:17:44.147Z,0
2024-02-04T04:19:44.712Z,0
2024-02-04T04:21:44.155Z,0
2024-02-04T04:23:43.854Z,0
2024-02-04T04:25:43.857Z,0
2024-02-04T04:27:44.090Z,0
2024-02-04T04:29:43.837Z,0
2024-02-04T04:31:45.944Z,0
2024-02-04T04:33:44.818Z,0
2024-02-04T04:35:43.886Z,0
2024-02-04T04:37:44.021Z,0
2024-02-04T04:39:44.080Z,0
2024-02-04T04:41:43.862Z,0
2024-02-04T04:43:43.967Z,0
2024-02-04T04:45:44.010Z,0
2024-02-04T04:47:44.237Z,0
2024-02-04T04:49:44.216Z,0
2024-02-04T04:51:44.022Z,0
2024-02-04T04:53:43.914Z,0
2024-02-04T04:55:43.859Z,0
2024-02-04T04:57:44.002Z,0
2024-02-04T04:59:43.985Z,0
2024-02-04T05:01:44.148Z,0
2024-02-04T05:03:44.362Z,0
2024-02-04T05:05:43.865Z,0
2024-02-04T05:07:44.432Z,0
2024-02-04T05:09:44.059Z,0
2024-02-04T05:11:43.847Z,0
2024-02-04T05:13:43.844Z,0
2024-02-04T05:15:44.085Z,0
2024-02-04T05:17:44.472Z,0
2024-02-04T05:19:44.319Z,0
2024-02-04T05:21:44.175Z,0
2024-02-04T05:23:43.824Z,0
2024-02-04T05:25:43.958Z,0
2024-02-04T05:27:43.978Z,0
2024-02-04T05:29:44.055Z,0
2024-02-04T05:31:44.339Z,0
2024-02-04T05:33:44.258Z,0
2024-02-04T05:35:43.846Z,0
2024-02-04T05:37:43.871Z,0
2024-02-04T05:39:44.216Z,0
2024-02-04T05:41:43.952Z,0
2024-02-04T05:43:43.872Z,24.48
2024-02-04T05:45:44.471Z,24.48
2024-02-04T05:47:44.401Z,24.48
2024-02-04T05:49:44.470Z,24.48
2024-02-04T05:51:44.067Z,24.48
2024-02-04T05:53:43.878Z,24.48
2024-02-04T05:55:43.820Z,24.48
2024-02-04T05:57:43.983Z,24.48
2024-02-04T05:59:43.834Z,1.113
2024-02-04T06:01:43.806Z,1.113
2024-02-04T06:03:44.251Z,1.113
2024-02-04T06:05:44.021Z,1.113
2024-02-04T06:07:43.837Z,1.113
2024-02-04T06:09:44.097Z,1.113
2024-02-04T06:11:43.951Z,1.113
2024-02-04T06:13:43.985Z,10.015
2024-02-04T06:15:43.993Z,10.015
2024-02-04T06:17:44.054Z,10.015
2024-02-04T06:19:44.352Z,10.015
2024-02-04T06:21:44.226Z,10.015
2024-02-04T06:23:43.823Z,10.015
2024-02-04T06:25:44.253Z,10.015
2024-02-04T06:27:44.321Z,10.015
2024-02-04T06:29:43.869Z,4.451
2024-02-04T06:31:44.079Z,4.451
2024-02-04T06:33:44.333Z,4.451
2024-02-04T06:35:44.011Z,4.451
2024-02-04T06:37:43.868Z,4.451
2024-02-04T06:39:43.939Z,4.451
2024-02-04T06:41:43.980Z,4.451
2024-02-04T06:43:43.840Z,3.338
2024-02-04T06:45:44.101Z,3.338
2024-02-04T06:47:44.009Z,3.338
2024-02-04T06:49:44.238Z,3.338
2024-02-04T06:51:44.035Z,3.338
2024-02-04T06:53:43.821Z,3.338
2024-02-04T06:55:43.806Z,3.338
2024-02-04T06:57:44.004Z,3.338
2024-02-04T06:59:43.960Z,3.338
2024-02-04T07:01:44.473Z,3.338
2024-02-04T07:03:44.261Z,3.338
2024-02-04T07:05:44.240Z,3.338
2024-02-04T07:07:43.834Z,3.338
2024-02-04T07:09:43.956Z,3.338
2024-02-04T07:11:43.822Z,3.338
2024-02-04T07:13:43.830Z,2.225
2024-02-04T07:15:44.092Z,2.225
2024-02-04T07:17:44.106Z,2.225
2024-02-04T07:19:44.284Z,2.225
2024-02-04T07:21:44.035Z,2.225
2024-02-04T07:23:43.839Z,2.225
2024-02-04T07:25:43.814Z,2.225
2024-02-04T07:27:43.888Z,2.225
2024-02-04T07:29:43.821Z,4.451
2024-02-04T07:31:43.821Z,4.451
2024-02-04T07:33:44.248Z,4.451
2024-02-04T07:35:43.827Z,4.451
2024-02-04T07:37:43.839Z,4.451
2024-02-04T07:39:44.048Z,4.451
2024-02-04T07:41:43.817Z,4.451
2024-02-04T07:43:43.794Z,18.917
2024-02-04T07:45:44.117Z,18.917
2024-02-04T07:47:43.859Z,18.917
2024-02-04T07:49:44.157Z,18.917
2024-02-04T07:51:43.951Z,18.917
2024-02-04T07:53:43.918Z,18.917
2024-02-04T07:55:44.054Z,18.917
2024-02-04T07:57:44.090Z,18.917
2024-02-04T07:59:43.813Z,4.451
2024-02-04T08:01:44.262Z,4.451
2024-02-04T08:03:44.203Z,4.451
2024-02-04T08:05:43.853Z,4.451
2024-02-04T08:07:44.419Z,4.451
2024-02-04T08:09:43.954Z,4.451
2024-02-04T08:11:43.951Z,4.451
2024-02-04T08:13:43.820Z,3.338
2024-02-04T08:15:44.086Z,3.338
2024-02-04T08:17:44.006Z,3.338
2024-02-04T08:19:44.393Z,3.338
2024-02-04T08:21:43.959Z,3.338
2024-02-04T08:23:43.796Z,3.338
2024-02-04T08:25:43.810Z,3.338
2024-02-04T08:27:44.053Z,3.338
2024-02-04T08:29:43.830Z,1.113
2024-02-04T08:31:43.868Z,1.113
2024-02-04T08:33:44.159Z,1.113
2024-02-04T08:35:43.779Z,1.113
2024-02-04T08:37:43.938Z,1.113
2024-02-04T08:39:44.045Z,1.113
2024-02-04T08:41:43.781Z,1.113
2024-02-04T08:43:43.950Z,4.451
2024-02-04T08:45:43.973Z,4.451
2024-02-04T08:47:43.981Z,4.451
2024-02-04T08:49:44.468Z,4.451
2024-02-04T08:51:44.193Z,4.451
2024-02-04T08:53:43.940Z,4.451
2024-02-04T08:55:43.925Z,4.451
2024-02-04T08:57:43.988Z,4.451
2024-02-04T08:59:43.856Z,23.368
2024-02-04T09:01:44.245Z,23.368
2024-02-04T09:03:44.232Z,23.368
2024-02-04T09:05:44.152Z,23.368
2024-02-04T09:07:44.187Z,23.368
2024-02-04T09:09:44.053Z,23.368
2024-02-04T09:11:43.801Z,23.368
2024-02-04T09:13:44.262Z,1.113
2024-02-04T09:15:44.196Z,1.113
2024-02-04T09:17:44.224Z,1.113
2024-02-04T09:19:44.854Z,1.113
2024-02-04T09:21:44.371Z,1.113
2024-02-04T09:23:43.945Z,1.113
2024-02-04T09:25:44.613Z,1.113
2024-02-04T09:27:44.067Z,1.113
2024-02-04T09:29:44.976Z,5.564
2024-02-04T09:31:44.336Z,5.564
2024-02-04T09:33:44.635Z,5.564
2024-02-04T09:35:45.166Z,5.564
2024-02-04T09:37:44.390Z,5.564
2024-02-04T09:39:44.166Z,5.564
2024-02-04T09:41:43.799Z,5.564
2024-02-04T09:43:44.526Z,2.225
2024-02-04T09:45:44.137Z,2.225
2024-02-04T09:47:44.501Z,2.225
2024-02-04T09:49:44.455Z,2.225
2024-02-04T09:51:44.088Z,2.225
2024-02-04T09:53:44.072Z,2.225
2024-02-04T09:55:44.307Z,2.225
2024-02-04T09:57:44.238Z,2.225
2024-02-04T09:59:43.985Z,1.113
2024-02-04T10:01:44.326Z,1.113
2024-02-04T10:03:44.116Z,1.113
2024-02-04T10:05:44.222Z,1.113
2024-02-04T10:07:44.398Z,1.113
2024-02-04T10:09:44.265Z,1.113
2024-02-04T10:11:43.954Z,1.113
2024-02-04T10:13:43.842Z,2.225
2024-02-04T10:15:43.905Z,2.225
2024-02-04T10:17:44.064Z,2.225
2024-02-04T10:19:44.239Z,2.225
2024-02-04T10:21:43.922Z,2.225
2024-02-04T10:23:43.758Z,2.225
2024-02-04T10:25:43.868Z,2.225
2024-02-04T10:27:44.261Z,2.225
2024-02-04T10:29:43.798Z,20.029
2024-02-04T10:31:43.871Z,20.029
2024-02-04T10:33:45.154Z,20.029
2024-02-04T10:35:43.880Z,20.029
2024-02-04T10:37:43.752Z,20.029
2024-02-04T10:39:43.916Z,20.029
2024-02-04T10:41:43.776Z,20.029
2024-02-04T10:43:43.940Z,3.338
2024-02-04T10:45:43.992Z,3.338
2024-02-04T10:47:43.883Z,3.338
2024-02-04T10:49:44.259Z,3.338
2024-02-04T10:51:44.013Z,3.338
2024-02-04T10:53:43.764Z,3.338
2024-02-04T10:55:43.757Z,3.338
2024-02-04T10:57:43.864Z,3.338
2024-02-04T10:59:43.781Z,2.225
2024-02-04T11:01:44.419Z,2.225
2024-02-04T11:03:44.010Z,2.225
2024-02-04T11:05:44.086Z,2.225
2024-02-04T11:07:43.818Z,2.225
2024-02-04T11:09:43.885Z,2.225
2024-02-04T11:11:43.832Z,2.225
2024-02-04T11:13:43.804Z,3.338
2024-02-04T11:15:43.866Z,3.338
2024-02-04T11:17:43.993Z,3.338
2024-02-04T11:19:44.248Z,3.338
2024-02-04T11:21:44.027Z,3.338
2024-02-04T11:23:43.845Z,3.338
2024-02-04T11:25:43.760Z,3.338
2024-02-04T11:27:44.014Z,3.338
2024-02-04T11:29:43.938Z,0
2024-02-04T11:31:44.266Z,0
2024-02-04T11:33:44.362Z,0
2024-02-04T11:35:44.606Z,0
2024-02-04T11:37:44.823Z,0
2024-02-04T11:39:43.962Z,0
2024-02-04T11:41:44.069Z,0
2024-02-04T11:43:44.377Z,2.225
2024-02-04T11:45:44.373Z,2.225
2024-02-04T11:47:44.368Z,2.225
2024-02-04T11:49:44.876Z,2.225
2024-02-04T11:51:44.152Z,2.225
2024-02-04T11:53:44.096Z,2.225
2024-02-04T11:55:46.614Z,2.225
2024-02-04T11:57:44.310Z,2.225
2024-02-04T11:59:43.757Z,2.225
2024-02-04T12:01:44.376Z,2.225
2024-02-04T12:03:44.028Z,2.225
2024-02-04T12:05:43.760Z,2.225
2024-02-04T12:07:45.519Z,2.225
2024-02-04T12:09:44.626Z,2.225
2024-02-04T12:11:43.816Z,2.225
2024-02-04T12:13:43.749Z,2.225
2024-02-04T12:15:43.889Z,2.225
2024-02-04T12:17:44.035Z,2.225
2024-02-04T12:19:45.664Z,2.225
2024-02-04T12:21:43.903Z,2.225
2024-02-04T12:23:43.751Z,2.225
2024-02-04T12:25:45.372Z,2.225
2024-02-04T12:27:43.948Z,2.225
2024-02-04T12:29:43.746Z,2.225
2024-02-04T12:31:43.808Z,2.225
2024-02-04T12:33:44.657Z,2.225
2024-02-04T12:35:43.744Z,2.225
2024-02-04T12:37:43.893Z,2.225
2024-02-04T12:39:44.230Z,2.225
2024-02-04T12:41:43.790Z,2.225
2024-02-04T12:43:43.936Z,0
2024-02-04T12:45:43.916Z,0
2024-02-04T12:47:43.966Z,0
2024-02-04T12:49:44.312Z,0
2024-02-04T12:51:44.002Z,0
2024-02-04T12:53:43.799Z,0
2024-02-04T12:55:44.633Z,0
2024-02-04T12:57:43.958Z,0
2024-02-04T12:59:44.344Z,2.225
2024-02-04T13:01:44.130Z,2.225
2024-02-04T13:03:44.106Z,2.225
2024-02-04T13:05:44.632Z,2.225
2024-02-04T13:07:43.941Z,2.225
2024-02-04T13:09:44.130Z,2.225
2024-02-04T13:11:43.769Z,2.225
2024-02-04T13:13:43.731Z,2.225
2024-02-04T13:15:43.859Z,2.225
2024-02-04T13:17:43.950Z,2.225
2024-02-04T13:19:44.610Z,2.225
2024-02-04T13:21:43.853Z,2.225
2024-02-04T13:23:44.433Z,2.225
2024-02-04T13:25:43.845Z,2.225
2024-02-04T13:27:43.965Z,2.225
2024-02-04T13:29:43.731Z,2.225
2024-02-04T13:31:44.186Z,2.225
2024-02-04T13:33:44.021Z,2.225
2024-02-04T13:35:44.238Z,2.225
2024-02-04T13:37:43.771Z,2.225
2024-02-04T13:39:44.022Z,2.225
2024-02-04T13:41:43.913Z,2.225
2024-02-04T13:43:43.715Z,0
2024-02-04T13:45:43.954Z,0
2024-02-04T13:47:44.382Z,0
2024-02-04T13:49:44.225Z,0
2024-02-04T13:51:46.379Z,0
2024-02-04T13:53:43.752Z,0
2024-02-04T13:55:43.797Z,0
2024-02-04T13:57:43.977Z,0
2024-02-04T13:59:43.734Z,1.113
2024-02-04T14:01:44.389Z,1.113
2024-02-04T14:03:44.100Z,1.113
2024-02-04T14:05:44.051Z,1.113
2024-02-04T14:07:43.700Z,1.113
2024-02-04T14:09:43.932Z,1.113
2024-02-04T14:11:43.734Z,1.113
2024-02-04T14:13:43.836Z,2.225
2024-02-04T14:15:43.970Z,2.225
2024-02-04T14:17:43.915Z,2.225
2024-02-04T14:19:44.237Z,2.225
2024-02-04T14:21:43.889Z,2.225
2024-02-04T14:23:43.781Z,2.225
2024-02-04T14:25:43.829Z,2.225
2024-02-04T14:27:44.173Z,2.225
2024-02-04T14:29:43.937Z,1.113
2024-02-04T14:31:43.712Z,1.113
2024-02-04T14:33:44.285Z,1.113
2024-02-04T14:35:43.870Z,1.113
2024-02-04T14:37:44.064Z,1.113
2024-02-04T14:39:43.910Z,1.113
2024-02-04T14:41:43.836Z,1.113
2024-02-04T14:43:43.787Z,2.225
2024-02-04T14:45:44.036Z,2.225
2024-02-04T14:47:44.358Z,2.225
2024-02-04T14:49:44.135Z,2.225
2024-02-04T14:51:44.086Z,2.225
2024-02-04T14:53:43.774Z,2.225
2024-02-04T14:55:43.806Z,2.225
2024-02-04T14:57:44.042Z,2.225
2024-02-04T14:59:43.825Z,17.804
2024-02-04T15:01:44.098Z,17.804
2024-02-04T15:03:43.897Z,17.804
2024-02-04T15:05:44.013Z,17.804
2024-02-04T15:07:49.077Z,17.804
2024-02-04T15:09:43.941Z,17.804
2024-02-04T15:11:44.422Z,17.804
2024-02-04T15:13:43.836Z,0
2024-02-04T15:15:43.948Z,0
2024-02-04T15:17:43.858Z,0
2024-02-04T15:19:43.937Z,0
2024-02-04T15:21:44.004Z,0
2024-02-04T15:23:44.085Z,0
2024-02-04T15:25:43.701Z,0
2024-02-04T15:27:43.934Z,0
2024-02-04T15:29:44.376Z,1.113
2024-02-04T15:31:43.743Z,1.113
2024-02-04T15:33:45.229Z,1.113
2024-02-04T15:35:43.699Z,1.113
2024-02-04T15:37:43.706Z,1.113
2024-02-04T15:39:43.832Z,1.113
2024-02-04T15:41:43.903Z,1.113
2024-02-04T15:43:43.712Z,0
2024-02-04T15:45:43.863Z,0
2024-02-04T15:47:44.081Z,0
2024-02-04T15:49:44.260Z,0
2024-02-04T15:51:43.877Z,0
2024-02-04T15:53:43.704Z,0
2024-02-04T15:55:43.889Z,0
2024-02-04T15:57:43.823Z,0
2024-02-04T15:59:43.709Z,2.225
2024-02-04T16:01:44.254Z,2.225
2024-02-04T16:03:44.650Z,2.225
2024-02-04T16:05:43.908Z,2.225
2024-02-04T16:07:43.711Z,2.225
2024-02-04T16:09:43.810Z,2.225
2024-02-04T16:11:43.736Z,2.225
2024-02-04T16:13:44.796Z,3.338
2024-02-04T16:15:43.857Z,3.338
2024-02-04T16:17:43.871Z,3.338
2024-02-04T16:19:44.336Z,3.338
2024-02-04T16:21:43.838Z,3.338
2024-02-04T16:23:44.426Z,3.338
2024-02-04T16:25:43.702Z,3.338
2024-02-04T16:27:43.822Z,3.338
2024-02-04T16:29:43.677Z,3.338
2024-02-04T16:31:43.700Z,3.338
2024-02-04T16:33:44.147Z,3.338
2024-02-04T16:35:43.770Z,3.338
2024-02-04T16:37:43.895Z,3.338
2024-02-04T16:39:44.087Z,3.338
2024-02-04T16:41:43.766Z,3.338
2024-02-04T16:43:43.810Z,0
2024-02-04T16:45:43.934Z,0
2024-02-04T16:47:43.959Z,0
2024-02-04T16:49:44.125Z,0
2024-02-04T16:51:43.907Z,0
2024-02-04T16:53:43.860Z,0
2024-02-04T16:55:43.749Z,0
2024-02-04T16:57:43.912Z,0
2024-02-04T16:59:43.805Z,3.338
2024-02-04T17:01:44.290Z,3.338
2024-02-04T17:03:43.848Z,3.338
2024-02-04T17:05:57.467Z,3.338
2024-02-04T17:07:44.093Z,3.338
2024-02-04T17:09:43.917Z,3.338
2024-02-04T17:11:43.691Z,3.338
2024-02-04T17:13:43.668Z,1.113
2024-02-04T17:15:43.833Z,1.113
2024-02-04T17:17:43.949Z,1.113
2024-02-04T17:19:44.218Z,1.113
2024-02-04T17:21:43.918Z,1.113
2024-02-04T17:23:43.659Z,1.113
2024-02-04T17:25:43.811Z,1.113
2024-02-04T17:27:44.137Z,1.113
2024-02-04T17:29:43.689Z,2.225
2024-02-04T17:31:44.341Z,2.225
2024-02-04T17:33:44.123Z,2.225
2024-02-04T17:35:43.714Z,2.225
2024-02-04T17:37:43.704Z,2.225
2024-02-04T17:39:43.993Z,2.225
2024-02-04T17:41:43.785Z,2.225
2024-02-04T17:43:43.685Z,14.466
2024-02-04T17:45:44.006Z,14.466
2024-02-04T17:47:43.973Z,14.466
2024-02-04T17:49:44.067Z,14.466
2024-02-04T17:51:43.976Z,14.466
2024-02-04T17:53:43.810Z,14.466
2024-02-04T17:55:43.768Z,14.466
2024-02-04T17:57:43.973Z,14.466
2024-02-04T17:59:43.676Z,0
2024-02-04T18:01:44.199Z,0
2024-02-04T18:03:44.210Z,0
2024-02-04T18:05:44.075Z,0
2024-02-04T18:07:44.910Z,0
2024-02-04T18:09:43.965Z,0
2024-02-04T18:11:43.681Z,0
2024-02-04T18:13:43.706Z,2.225
2024-02-04T18:15:43.854Z,2.225
2024-02-04T18:17:45.186Z,2.225
2024-02-04T18:19:44.103Z,2.225
2024-02-04T18:21:43.886Z,2.225
2024-02-04T18:23:43.680Z,2.225
2024-02-04T18:25:43.761Z,2.225
2024-02-04T18:27:44.661Z,2.225
2024-02-04T18:29:43.812Z,0
2024-02-04T18:31:43.702Z,0
2024-02-04T18:33:44.016Z,0
2024-02-04T18:35:43.683Z,0
2024-02-04T18:37:43.675Z,0
2024-02-04T18:39:43.895Z,0
2024-02-04T18:41:43.702Z,0
2024-02-04T18:43:43.673Z,1.113
2024-02-04T18:45:43.947Z,1.113
2024-02-04T18:47:43.850Z,1.113
2024-02-04T18:49:44.724Z,1.113
2024-02-04T18:51:43.946Z,1.113
2024-02-04T18:53:43.685Z,1.113
2024-02-04T18:55:43.645Z,1.113
2024-02-04T18:57:43.831Z,1.113
2024-02-04T18:59:43.666Z,2.225
2024-02-04T19:01:44.350Z,2.225
2024-02-04T19:03:43.862Z,2.225
2024-02-04T19:05:43.926Z,2.225
2024-02-04T19:07:43.696Z,2.225
2024-02-04T19:09:44.031Z,2.225
2024-02-04T19:11:44.100Z,2.225
2024-02-04T19:13:43.683Z,10.015
2024-02-04T19:15:43.881Z,10.015
2024-02-04T19:17:43.965Z,10.015
2024-02-04T19:19:44.094Z,10.015
2024-02-04T19:21:43.989Z,10.015
2024-02-04T19:23:43.672Z,10.015
2024-02-04T19:25:43.688Z,10.015
2024-02-04T19:27:44.110Z,10.015
2024-02-04T19:29:43.684Z,15.578
2024-02-04T19:31:44.095Z,15.578
2024-02-04T19:33:44.073Z,15.578
2024-02-04T19:35:43.899Z,15.578
2024-02-04T19:37:43.675Z,15.578
2024-02-04T19:39:44.082Z,15.578
2024-02-04T19:41:43.667Z,15.578
2024-02-04T19:43:43.793Z,0
2024-02-04T19:45:43.855Z,0
2024-02-04T19:47:44.054Z,0
2024-02-04T19:49:44.662Z,0
2024-02-04T19:51:43.770Z,0
2024-02-04T19:53:43.768Z,0
2024-02-04T19:55:43.874Z,0
2024-02-04T19:57:43.712Z,0
2024-02-04T19:59:43.688Z,2.225
2024-02-04T20:01:44.120Z,2.225
2024-02-04T20:03:43.987Z,2.225
2024-02-04T20:05:43.835Z,2.225
2024-02-04T20:07:44.101Z,2.225
2024-02-04T20:09:43.969Z,2.225
2024-02-04T20:11:43.770Z,2.225
2024-02-04T20:13:43.662Z,2.225
2024-02-04T20:15:43.733Z,2.225
2024-02-04T20:17:43.973Z,2.225
2024-02-04T20:19:44.438Z,2.225
2024-02-04T20:21:43.971Z,2.225
2024-02-04T20:23:43.896Z,2.225
2024-02-04T20:25:43.752Z,2.225
2024-02-04T20:27:44.016Z,2.225
2024-02-04T20:29:43.689Z,2.225
2024-02-04T20:31:43.748Z,2.225
2024-02-04T20:33:43.942Z,2.225
2024-02-04T20:35:43.643Z,2.225
2024-02-04T20:37:43.752Z,2.225
2024-02-04T20:39:43.862Z,2.225
2024-02-04T20:41:43.661Z,2.225
2024-02-04T20:43:43.877Z,1.113
2024-02-04T20:45:43.944Z,1.113
2024-02-04T20:47:43.940Z,1.113
2024-02-04T20:49:43.982Z,1.113
2024-02-04T20:51:43.777Z,1.113
2024-02-04T20:53:43.764Z,1.113
2024-02-04T20:55:43.707Z,1.113
2024-02-04T20:57:43.823Z,1.113
2024-02-04T20:59:43.697Z,2.225
2024-02-04T21:01:43.973Z,2.225
2024-02-04T21:03:44.116Z,2.225
2024-02-04T21:05:43.889Z,2.225
2024-02-04T21:07:43.644Z,2.225
2024-02-04T21:09:43.784Z,2.225
2024-02-04T21:11:43.777Z,2.225
2024-02-04T21:13:43.707Z,0
2024-02-04T21:15:44.023Z,0
2024-02-04T21:17:43.833Z,0
2024-02-04T21:19:44.135Z,0
2024-02-04T21:21:43.899Z,0
2024-02-04T21:23:43.778Z,0
2024-02-04T21:25:43.797Z,0
2024-02-04T21:27:43.686Z,0
2024-02-04T21:29:43.614Z,0
2024-02-04T21:31:43.866Z,0
2024-02-04T21:33:44.102Z,0
2024-02-04T21:35:43.621Z,0
2024-02-04T21:37:43.698Z,0
2024-02-04T21:39:43.921Z,0
2024-02-04T21:41:43.683Z,0
2024-02-04T21:43:43.593Z,0
2024-02-04T21:45:43.987Z,0
2024-02-04T21:47:44.089Z,0
2024-02-04T21:49:44.211Z,0
2024-02-04T21:51:44.015Z,0
2024-02-04T21:53:43.653Z,0
2024-02-04T21:55:43.658Z,0
2024-02-04T21:57:43.796Z,0
2024-02-04T21:59:43.752Z,0
2024-02-04T22:01:44.052Z,0
2024-02-04T22:03:44.117Z,0
2024-02-04T22:05:43.613Z,0
2024-02-04T22:07:44.203Z,0
2024-02-04T22:09:43.972Z,0
2024-02-04T22:11:43.643Z,0
2024-02-04T22:13:43.687Z,0
2024-02-04T22:15:43.736Z,0
2024-02-04T22:17:44.049Z,0
2024-02-04T22:19:43.959Z,0
2024-02-04T22:21:44.273Z,0
2024-02-04T22:23:43.620Z,0
2024-02-04T22:25:43.646Z,0
2024-02-04T22:27:43.825Z,0
2024-02-04T22:29:43.683Z,0
2024-02-04T22:31:43.628Z,0
2024-02-04T22:33:43.856Z,0
2024-02-04T22:35:43.828Z,0
2024-02-04T22:37:43.630Z,0
2024-02-04T22:39:43.862Z,0
2024-02-04T22:41:43.667Z,0
2024-02-04T22:43:43.938Z,0
2024-02-04T22:45:43.730Z,0
2024-02-04T22:47:43.845Z,0
2024-02-04T22:49:44.047Z,0
2024-02-04T22:51:43.860Z,0
2024-02-04T22:53:43.601Z,0
2024-02-04T22:55:43.760Z,0
2024-02-04T22:57:43.836Z,0
2024-02-04T22:59:43.601Z,0
2024-02-04T23:01:44.303Z,0
2024-02-04T23:03:43.939Z,0
2024-02-04T23:05:43.598Z,0
2024-02-04T23:07:54.753Z,0
2024-02-04T23:09:43.779Z,0
2024-02-04T23:11:43.600Z,0
2024-02-04T23:13:43.719Z,0
2024-02-04T23:15:43.823Z,0
2024-02-04T23:17:43.836Z,0
2024-02-04T23:19:43.884Z,0
2024-02-04T23:21:43.919Z,0
2024-02-04T23:23:43.619Z,0
2024-02-04T23:25:43.627Z,0
2024-02-04T23:27:43.709Z,0
2024-02-04T23:29:43.612Z,0
2024-02-04T23:31:43.749Z,0
2024-02-04T23:33:44.048Z,0
2024-02-04T23:35:43.600Z,0
2024-02-04T23:37:43.624Z,0
2024-02-04T23:39:43.874Z,0
2024-02-04T23:41:43.594Z,0
2024-02-04T23:43:43.602Z,0
2024-02-04T23:45:43.865Z,0
2024-02-04T23:47:44.023Z,0
2024-02-04T23:49:44.071Z,0
2024-02-04T23:51:43.763Z,0
2024-02-04T23:53:43.847Z,0
2024-02-04T23:55:43.624Z,0
2024-02-04T23:57:43.812Z,0
2024-02-04T23:59:43.617Z,0
